Lancaster, Ohio
Current Conditions -  °F | °C
As of 5:53 AM on Friday 28 Nov 2014 (Local Time) from KLHQ Reporting Station
Clear Clear  
Wind Chill: 16°   Ceiling: Unl
Heat Index: 22°   Visibility: 8mi
Dew Point: 17°   Wind: 5mph
Humidity: 82%   Direction: 260°W
Pressure: 30.36"   Gusts: NA
Location:  39.71°N, 82.6°W
Report Text: KLHQ 281053Z AUTO 26004KT 8SM CLR M06/M08 A3036 RMK AO2 SLP291 T10561083
Loading
Personal Weather Stations






























Interactive Weather Map New forecast layout! Learn more

10-Day Weather Forecast

Advertisements
Track Severe Weather on mobile